Wetterdaten: Woche 23.02.15 - 01.03.15 (KW9)
Datum Zeit Temperatur Luftfeuchte Luftdruck Niederschlag Windrichtung Sonnenschein Solar Wind
23.02.2015 00:00 -3,1 C 95 % 1009,2 hPa 0,0 l/m N 0,00 h 0 W/m 0,3 km/h (0 Bft)
23.02.2015 01:00 -3,2 C 96 % 1008,6 hPa 0,0 l/m N 0,00 h 0 W/m 0,9 km/h (0 Bft)
23.02.2015 02:00 -2,8 C 97 % 1007,9 hPa 0,0 l/m N 0,00 h 0 W/m 0,3 km/h (0 Bft)
23.02.2015 03:00 -1,9 C 97 % 1006,9 hPa 0,0 l/m W-SW 0,00 h 0 W/m 4,8 km/h (1 Bft)
23.02.2015 04:00 -1,3 C 97 % 1006,3 hPa 0,0 l/m S-SW 0,00 h 0 W/m 8,6 km/h (2 Bft)
23.02.2015 05:00 -1,2 C 97 % 1005,9 hPa 0,0 l/m SW 0,00 h 0 W/m 11,4 km/h (2 Bft)
23.02.2015 06:00 -1,3 C 97 % 1005,3 hPa 0,0 l/m SW 0,00 h 0 W/m 13,8 km/h (3 Bft)
23.02.2015 07:00 -1,3 C 97 % 1004,4 hPa 0,0 l/m SW 0,08 h 19 W/m 16,2 km/h (3 Bft)
23.02.2015 08:00 -1,4 C 97 % 1003,7 hPa 0,0 l/m S-SW 0,08 h 66 W/m 16,8 km/h (3 Bft)
23.02.2015 09:00 -0,9 C 97 % 1003,1 hPa 0,0 l/m S-SW 0,00 h 86 W/m 12,0 km/h (2 Bft)
23.02.2015 10:00 -0,1 C 97 % 1002,5 hPa 0,6 l/m S-SW 0,00 h 93 W/m 13,1 km/h (3 Bft)
23.02.2015 11:00 0,5 C 95 % 1002,0 hPa 0,8 l/m SW 0,00 h 106 W/m 20,0 km/h (4 Bft)
23.02.2015 12:00 0,9 C 95 % 1001,7 hPa 1,2 l/m SW 0,00 h 87 W/m 15,2 km/h (3 Bft)
23.02.2015 13:00 1,2 C 96 % 1001,7 hPa 1,2 l/m W-SW 0,00 h 63 W/m 20,4 km/h (4 Bft)
23.02.2015 14:00 1,1 C 96 % 1001,8 hPa 1,2 l/m SW 0,00 h 67 W/m 18,1 km/h (3 Bft)
23.02.2015 15:00 1,3 C 97 % 1002,0 hPa 0,4 l/m SW 0,00 h 59 W/m 20,6 km/h (4 Bft)
23.02.2015 16:00 1,0 C 97 % 1002,3 hPa 0,0 l/m SW 0,00 h 40 W/m 16,2 km/h (3 Bft)
23.02.2015 17:00 1,2 C 98 % 1002,1 hPa 0,0 l/m SW 0,50 h 38 W/m 15,2 km/h (3 Bft)
23.02.2015 18:00 1,3 C 98 % 1002,1 hPa 0,0 l/m SW 0,00 h 0 W/m 11,0 km/h (2 Bft)
23.02.2015 19:00 1,8 C 98 % 1002,4 hPa 0,0 l/m SW 0,00 h 0 W/m 12,5 km/h (3 Bft)
23.02.2015 20:00 2,2 C 98 % 1002,8 hPa 0,0 l/m SW 0,00 h 0 W/m 4,4 km/h (1 Bft)
23.02.2015 21:00 2,0 C 98 % 1003,0 hPa 0,0 l/m SW 0,00 h 0 W/m 10,8 km/h (2 Bft)
23.02.2015 22:00 1,9 C 98 % 1003,2 hPa 0,0 l/m SW 0,00 h 0 W/m 14,4 km/h (3 Bft)
23.02.2015 23:00 2,3 C 98 % 1003,6 hPa 0,0 l/m SW 0,00 h 0 W/m 17,3 km/h (3 Bft)
24.02.2015 00:00 2,3 C 98 % 1003,7 hPa 0,0 l/m SW 0,00 h 0 W/m 16,6 km/h (3 Bft)
24.02.2015 01:00 2,1 C 98 % 1003,6 hPa 0,0 l/m SW 0,00 h 0 W/m 13,0 km/h (3 Bft)
24.02.2015 02:00 2,1 C 98 % 1003,4 hPa 0,0 l/m SW 0,00 h 0 W/m 13,7 km/h (3 Bft)
24.02.2015 03:00 2,5 C 98 % 1004,1 hPa 0,0 l/m W-SW 0,00 h 0 W/m 17,3 km/h (3 Bft)
24.02.2015 04:00 2,5 C 98 % 1004,3 hPa 0,0 l/m W-SW 0,00 h 0 W/m 13,4 km/h (3 Bft)
24.02.2015 05:00 2,1 C 96 % 1005,0 hPa 0,0 l/m W 0,00 h 0 W/m 11,0 km/h (2 Bft)
24.02.2015 06:00 2,0 C 95 % 1005,7 hPa 0,0 l/m W 0,00 h 0 W/m 5,9 km/h (2 Bft)
24.02.2015 07:00 1,7 C 96 % 1006,5 hPa 0,0 l/m W 0,00 h 13 W/m 5,9 km/h (2 Bft)
24.02.2015 08:00 1,8 C 96 % 1007,4 hPa 0,0 l/m W-SW 0,00 h 57 W/m 8,0 km/h (2 Bft)
24.02.2015 09:00 2,3 C 95 % 1008,1 hPa 0,0 l/m W-SW 0,00 h 101 W/m 12,8 km/h (3 Bft)
24.02.2015 10:00 2,8 C 89 % 1008,8 hPa 0,0 l/m SW 0,00 h 159 W/m 11,2 km/h (2 Bft)
24.02.2015 11:00 3,2 C 85 % 1009,4 hPa 0,0 l/m W-SW 0,00 h 178 W/m 16,0 km/h (3 Bft)
24.02.2015 12:00 3,5 C 83 % 1009,9 hPa 0,0 l/m W-NW 0,00 h 197 W/m 13,0 km/h (3 Bft)
24.02.2015 13:00 3,7 C 81 % 1010,3 hPa 0,0 l/m W 0,00 h 178 W/m 14,5 km/h (3 Bft)
24.02.2015 14:00 3,5 C 80 % 1010,9 hPa 0,0 l/m W 0,00 h 166 W/m 16,4 km/h (3 Bft)
24.02.2015 15:00 3,4 C 78 % 1011,4 hPa 0,0 l/m W-NW 0,00 h 129 W/m 14,6 km/h (3 Bft)
24.02.2015 16:00 3,1 C 77 % 1012,0 hPa 0,0 l/m W-SW 0,00 h 64 W/m 13,6 km/h (3 Bft)
24.02.2015 17:00 2,6 C 78 % 1012,8 hPa 0,0 l/m W-SW 0,00 h 18 W/m 7,2 km/h (2 Bft)
24.02.2015 18:00 1,9 C 80 % 1013,4 hPa 0,0 l/m W-SW 0,00 h 0 W/m 4,3 km/h (1 Bft)
24.02.2015 19:00 1,5 C 81 % 1013,9 hPa 0,0 l/m W-SW 0,00 h 0 W/m 2,1 km/h (1 Bft)
24.02.2015 20:00 0,8 C 84 % 1014,5 hPa 0,0 l/m N 0,00 h 0 W/m 0,8 km/h (0 Bft)
24.02.2015 21:00 0,2 C 86 % 1015,0 hPa 0,0 l/m N 0,00 h 0 W/m 0,1 km/h (0 Bft)
24.02.2015 22:00 -0,1 C 88 % 1015,6 hPa 0,0 l/m N 0,00 h 0 W/m 0,7 km/h (0 Bft)
24.02.2015 23:00 -0,4 C 88 % 1015,9 hPa 0,0 l/m N 0,00 h 0 W/m 0,0 km/h (0 Bft)
25.02.2015 00:00 -0,3 C 90 % 1016,2 hPa 0,0 l/m N 0,00 h 0 W/m 0,0 km/h (0 Bft)
25.02.2015 01:00 -0,2 C 91 % 1016,5 hPa 0,0 l/m N 0,00 h 0 W/m 0,3 km/h (0 Bft)
25.02.2015 02:00 -0,1 C 93 % 1016,9 hPa 0,0 l/m N 0,00 h 0 W/m 0,5 km/h (0 Bft)
25.02.2015 03:00 0,1 C 93 % 1017,2 hPa 0,0 l/m N 0,00 h 0 W/m 1,6 km/h (1 Bft)
25.02.2015 04:00 0,1 C 93 % 1017,5 hPa 0,0 l/m N 0,00 h 0 W/m 0,1 km/h (0 Bft)
25.02.2015 05:00 -0,1 C 93 % 1018,0 hPa 0,0 l/m N 0,00 h 0 W/m 0,4 km/h (0 Bft)
25.02.2015 06:00 -0,2 C 93 % 1018,6 hPa 0,0 l/m N 0,00 h 0 W/m 1,1 km/h (0 Bft)
25.02.2015 07:00 -0,2 C 94 % 1018,9 hPa 0,0 l/m W-SW 0,00 h 17 W/m 3,7 km/h (1 Bft)
25.02.2015 08:00 0,3 C 95 % 1019,3 hPa 0,0 l/m SW 0,00 h 42 W/m 5,2 km/h (1 Bft)
25.02.2015 09:00 0,7 C 95 % 1019,4 hPa 0,0 l/m SW 0,00 h 81 W/m 7,1 km/h (2 Bft)
25.02.2015 10:00 2,3 C 92 % 1019,4 hPa 0,0 l/m S-SW 0,67 h 358 W/m 9,9 km/h (2 Bft)
25.02.2015 11:00 3,5 C 87 % 1019,5 hPa 0,0 l/m S-SW 0,17 h 186 W/m 9,0 km/h (2 Bft)
25.02.2015 12:00 3,3 C 88 % 1019,6 hPa 0,0 l/m S-SW 0,00 h 129 W/m 8,5 km/h (2 Bft)
25.02.2015 13:00 3,4 C 86 % 1019,2 hPa 0,0 l/m SW 0,08 h 192 W/m 8,6 km/h (2 Bft)
25.02.2015 14:00 4,9 C 79 % 1018,9 hPa 0,0 l/m S-SW 0,58 h 344 W/m 9,0 km/h (2 Bft)
25.02.2015 15:00 5,4 C 75 % 1018,7 hPa 0,0 l/m S-SW 1,00 h 337 W/m 9,9 km/h (2 Bft)
25.02.2015 16:00 5,1 C 72 % 1018,6 hPa 0,0 l/m S-SW 1,00 h 196 W/m 6,8 km/h (2 Bft)
25.02.2015 17:00 3,6 C 76 % 1018,9 hPa 0,0 l/m S-SW 0,17 h 24 W/m 2,0 km/h (1 Bft)
25.02.2015 18:00 2,1 C 80 % 1019,5 hPa 0,0 l/m N 0,00 h 0 W/m 0,3 km/h (0 Bft)
25.02.2015 19:00 0,8 C 81 % 1019,8 hPa 0,0 l/m N 0,00 h 0 W/m 0,0 km/h (0 Bft)
25.02.2015 20:00 -0,4 C 85 % 1020,0 hPa 0,0 l/m N 0,00 h 0 W/m 0,4 km/h (0 Bft)
25.02.2015 21:00 -1,3 C 88 % 1020,4 hPa 0,0 l/m N 0,00 h 0 W/m 0,3 km/h (0 Bft)
25.02.2015 22:00 -1,8 C 90 % 1020,6 hPa 0,0 l/m N 0,00 h 0 W/m 0,4 km/h (0 Bft)
25.02.2015 23:00 -2,4 C 91 % 1020,8 hPa 0,0 l/m N 0,00 h 0 W/m 0,0 km/h (0 Bft)
26.02.2015 00:00 -2,9 C 91 % 1021,1 hPa 0,0 l/m N 0,00 h 0 W/m 0,0 km/h (0 Bft)
26.02.2015 01:00 -3,3 C 92 % 1021,3 hPa 0,0 l/m N 0,00 h 0 W/m 0,0 km/h (0 Bft)
26.02.2015 02:00 -3,8 C 92 % 1021,6 hPa 0,0 l/m N 0,00 h 0 W/m 0,0 km/h (0 Bft)
26.02.2015 03:00 -4,2 C 92 % 1021,8 hPa 0,0 l/m N 0,00 h 0 W/m 0,0 km/h (0 Bft)
26.02.2015 04:00 -4,6 C 92 % 1021,8 hPa 0,0 l/m N 0,00 h 0 W/m 0,0 km/h (0 Bft)
26.02.2015 05:00 -5,0 C 93 % 1022,0 hPa 0,0 l/m N 0,00 h 0 W/m 0,0 km/h (0 Bft)
26.02.2015 06:00 -5,3 C 93 % 1021,9 hPa 0,0 l/m N 0,00 h 0 W/m 0,0 km/h (0 Bft)
26.02.2015 07:00 -5,4 C 93 % 1022,1 hPa 0,0 l/m N 0,00 h 15 W/m 0,0 km/h (0 Bft)
26.02.2015 08:00 -4,9 C 95 % 1022,2 hPa 0,0 l/m N 0,50 h 104 W/m 0,5 km/h (0 Bft)
26.02.2015 09:00 -2,9 C 96 % 1022,0 hPa 0,0 l/m N 1,00 h 286 W/m 0,7 km/h (0 Bft)
26.02.2015 10:00 -0,8 C 96 % 1021,7 hPa 0,0 l/m S-SW 1,00 h 421 W/m 5,5 km/h (1 Bft)
26.02.2015 11:00 2,0 C 82 % 1021,4 hPa 0,0 l/m S-SW 1,00 h 539 W/m 9,0 km/h (2 Bft)
26.02.2015 12:00 4,7 C 66 % 1020,4 hPa 0,0 l/m S-SW 1,00 h 578 W/m 6,9 km/h (2 Bft)
26.02.2015 13:00 5,8 C 58 % 1019,5 hPa 0,0 l/m S-SO 1,00 h 568 W/m 5,6 km/h (1 Bft)
26.02.2015 14:00 6,7 C 52 % 1018,8 hPa 0,0 l/m O-SO 1,00 h 501 W/m 9,0 km/h (2 Bft)
26.02.2015 15:00 6,7 C 49 % 1018,2 hPa 0,0 l/m O-SO 1,00 h 390 W/m 11,9 km/h (2 Bft)
26.02.2015 16:00 6,2 C 51 % 1017,6 hPa 0,0 l/m O-SO 1,00 h 231 W/m 9,8 km/h (2 Bft)
26.02.2015 17:00 5,1 C 55 % 1017,2 hPa 0,0 l/m O-SO 0,58 h 45 W/m 4,3 km/h (1 Bft)
26.02.2015 18:00 3,6 C 60 % 1017,1 hPa 0,0 l/m N 0,00 h 0 W/m 0,4 km/h (0 Bft)
26.02.2015 19:00 1,3 C 66 % 1016,8 hPa 0,0 l/m N 0,00 h 0 W/m 0,5 km/h (0 Bft)
26.02.2015 20:00 -0,1 C 71 % 1016,3 hPa 0,0 l/m N 0,00 h 0 W/m 0,3 km/h (0 Bft)
26.02.2015 21:00 -1,2 C 75 % 1015,5 hPa 0,0 l/m N 0,00 h 0 W/m 0,0 km/h (0 Bft)
26.02.2015 22:00 -1,9 C 80 % 1014,8 hPa 0,0 l/m N 0,00 h 0 W/m 0,0 km/h (0 Bft)
26.02.2015 23:00 -2,6 C 83 % 1014,3 hPa 0,0 l/m N 0,00 h 0 W/m 0,0 km/h (0 Bft)
27.02.2015 00:00 -3,2 C 85 % 1013,6 hPa 0,0 l/m N 0,00 h 0 W/m 0,0 km/h (0 Bft)
27.02.2015 01:00 -3,8 C 86 % 1013,0 hPa 0,0 l/m N 0,00 h 0 W/m 0,0 km/h (0 Bft)
27.02.2015 02:00 -4,2 C 88 % 1012,3 hPa 0,0 l/m N 0,00 h 0 W/m 0,0 km/h (0 Bft)
27.02.2015 03:00 -4,1 C 90 % 1011,3 hPa 0,0 l/m N 0,00 h 0 W/m 0,0 km/h (0 Bft)
27.02.2015 04:00 -3,4 C 92 % 1010,6 hPa 0,0 l/m N 0,00 h 0 W/m 0,3 km/h (0 Bft)
27.02.2015 05:00 -2,8 C 92 % 1010,4 hPa 0,0 l/m N 0,00 h 0 W/m 0,4 km/h (0 Bft)
27.02.2015 06:00 -2,3 C 91 % 1010,1 hPa 0,0 l/m N 0,00 h 0 W/m 0,1 km/h (0 Bft)
27.02.2015 07:00 -1,9 C 90 % 1009,9 hPa 0,0 l/m N 0,00 h 7 W/m 0,5 km/h (0 Bft)
27.02.2015 08:00 -1,3 C 91 % 1009,8 hPa 0,2 l/m S 0,00 h 28 W/m 6,2 km/h (2 Bft)
27.02.2015 09:00 -0,6 C 93 % 1009,9 hPa 0,2 l/m S-SW 0,00 h 54 W/m 7,0 km/h (2 Bft)
27.02.2015 10:00 0,3 C 94 % 1010,2 hPa 0,2 l/m S-SW 0,00 h 73 W/m 4,7 km/h (1 Bft)
27.02.2015 11:00 1,0 C 94 % 1010,6 hPa 0,0 l/m S-SW 0,00 h 71 W/m 2,0 km/h (1 Bft)
27.02.2015 12:00 1,3 C 94 % 1011,1 hPa 0,6 l/m S-SW 0,00 h 89 W/m 7,1 km/h (2 Bft)
27.02.2015 13:00 1,1 C 96 % 1011,2 hPa 1,6 l/m S-SW 0,00 h 117 W/m 8,2 km/h (2 Bft)
27.02.2015 14:00 1,3 C 97 % 1011,9 hPa 1,6 l/m SW 0,00 h 99 W/m 12,2 km/h (2 Bft)
27.02.2015 15:00 1,3 C 97 % 1013,0 hPa 1,2 l/m W-SW 0,00 h 67 W/m 9,4 km/h (2 Bft)
27.02.2015 16:00 1,3 C 97 % 1014,1 hPa 0,4 l/m W-SW 0,00 h 24 W/m 10,1 km/h (2 Bft)
27.02.2015 17:00 1,2 C 97 % 1015,2 hPa 1,4 l/m W 0,00 h 10 W/m 9,7 km/h (2 Bft)
27.02.2015 18:00 1,0 C 97 % 1016,5 hPa 0,4 l/m W 0,00 h 0 W/m 7,9 km/h (2 Bft)
27.02.2015 19:00 1,2 C 97 % 1017,5 hPa 0,6 l/m W 0,00 h 0 W/m 14,0 km/h (3 Bft)
27.02.2015 20:00 1,2 C 97 % 1018,6 hPa 0,2 l/m W 0,00 h 0 W/m 11,6 km/h (2 Bft)
27.02.2015 21:00 1,1 C 97 % 1019,5 hPa 0,2 l/m W 0,00 h 0 W/m 7,2 km/h (2 Bft)
27.02.2015 22:00 1,0 C 97 % 1020,3 hPa 0,4 l/m W 0,00 h 0 W/m 3,1 km/h (1 Bft)
27.02.2015 23:00 0,9 C 97 % 1020,6 hPa 0,0 l/m W 0,00 h 0 W/m 5,5 km/h (1 Bft)
28.02.2015 00:00 0,8 C 97 % 1020,7 hPa 0,0 l/m W 0,00 h 0 W/m 10,3 km/h (2 Bft)
28.02.2015 01:00 0,8 C 97 % 1020,7 hPa 0,0 l/m W-NW 0,00 h 0 W/m 11,7 km/h (2 Bft)
28.02.2015 02:00 0,8 C 97 % 1020,6 hPa 0,0 l/m W-NW 0,00 h 0 W/m 9,8 km/h (2 Bft)
28.02.2015 03:00 0,8 C 97 % 1020,3 hPa 0,0 l/m W-NW 0,00 h 0 W/m 5,2 km/h (1 Bft)
28.02.2015 04:00 0,7 C 96 % 1020,3 hPa 0,0 l/m N 0,00 h 0 W/m 0,5 km/h (0 Bft)
28.02.2015 05:00 0,5 C 96 % 1020,8 hPa 0,0 l/m N 0,00 h 0 W/m 0,0 km/h (0 Bft)
28.02.2015 06:00 0,4 C 97 % 1021,0 hPa 0,0 l/m N 0,00 h 0 W/m 0,5 km/h (0 Bft)
28.02.2015 07:00 0,5 C 97 % 1021,3 hPa 0,0 l/m N 0,00 h 13 W/m 0,3 km/h (0 Bft)
28.02.2015 08:00 0,7 C 97 % 1021,8 hPa 0,0 l/m N 0,00 h 41 W/m 0,0 km/h (0 Bft)
28.02.2015 09:00 1,2 C 97 % 1021,6 hPa 0,0 l/m N 0,00 h 87 W/m 0,9 km/h (0 Bft)
28.02.2015 10:00 1,7 C 94 % 1021,5 hPa 0,0 l/m O 0,25 h 199 W/m 6,6 km/h (2 Bft)
28.02.2015 11:00 2,4 C 88 % 1021,4 hPa 0,0 l/m O-SO 0,25 h 276 W/m 7,5 km/h (2 Bft)
28.02.2015 12:00 3,1 C 85 % 1020,7 hPa 0,0 l/m O-NO 0,75 h 580 W/m 7,9 km/h (2 Bft)
28.02.2015 13:00 3,9 C 81 % 1019,7 hPa 0,0 l/m O-SO 0,92 h 570 W/m 9,3 km/h (2 Bft)
28.02.2015 14:00 4,1 C 80 % 1018,9 hPa 0,0 l/m O-SO 0,58 h 439 W/m 6,4 km/h (2 Bft)
28.02.2015 15:00 4,0 C 78 % 1018,6 hPa 0,0 l/m O-SO 0,17 h 182 W/m 3,2 km/h (1 Bft)
28.02.2015 16:00 3,4 C 80 % 1018,3 hPa 0,0 l/m N 0,00 h 69 W/m 1,1 km/h (0 Bft)
28.02.2015 17:00 3,0 C 81 % 1018,1 hPa 0,0 l/m N 0,42 h 44 W/m 0,4 km/h (0 Bft)
28.02.2015 18:00 1,3 C 88 % 1018,3 hPa 0,0 l/m N 0,00 h 7 W/m 0,3 km/h (0 Bft)
28.02.2015 19:00 0,2 C 90 % 1018,3 hPa 0,0 l/m N 0,00 h 0 W/m 0,0 km/h (0 Bft)
28.02.2015 20:00 -0,6 C 90 % 1018,3 hPa 0,0 l/m N 0,00 h 0 W/m 0,1 km/h (0 Bft)
28.02.2015 21:00 -1,3 C 91 % 1017,9 hPa 0,0 l/m N 0,00 h 0 W/m 0,0 km/h (0 Bft)
28.02.2015 22:00 -1,9 C 91 % 1017,3 hPa 0,0 l/m N 0,00 h 0 W/m 0,0 km/h (0 Bft)
28.02.2015 23:00 -2,6 C 93 % 1016,3 hPa 0,0 l/m N 0,00 h 0 W/m 0,0 km/h (0 Bft)
01.03.2015 00:00 -3,3 C 93 % 1015,4 hPa 0,0 l/m O-SO 0,00 h 0 W/m 0,5 km/h (0 Bft)
01.03.2015 01:00 -3,7 C 94 % 1014,9 hPa 0,0 l/m N 0,00 h 0 W/m 0,9 km/h (0 Bft)
01.03.2015 02:00 -3,6 C 95 % 1014,1 hPa 0,0 l/m N 0,00 h 0 W/m 0,0 km/h (0 Bft)
01.03.2015 03:00 -2,8 C 96 % 1013,6 hPa 0,0 l/m N 0,00 h 0 W/m 1,3 km/h (1 Bft)
01.03.2015 04:00 -1,5 C 97 % 1012,9 hPa 0,0 l/m SW 0,00 h 0 W/m 10,2 km/h (2 Bft)
01.03.2015 05:00 0,0 C 97 % 1012,7 hPa 0,0 l/m SW 0,00 h 0 W/m 14,6 km/h (3 Bft)
01.03.2015 06:00 0,6 C 96 % 1012,7 hPa 0,2 l/m SW 0,00 h 0 W/m 16,9 km/h (3 Bft)
01.03.2015 07:00 1,0 C 96 % 1012,5 hPa 0,0 l/m SW 0,00 h 8 W/m 22,8 km/h (4 Bft)
01.03.2015 08:00 1,2 C 96 % 1012,5 hPa 0,4 l/m SW 0,00 h 28 W/m 20,4 km/h (4 Bft)
01.03.2015 09:00 1,2 C 96 % 1012,2 hPa 0,2 l/m SW 0,00 h 80 W/m 18,5 km/h (3 Bft)
01.03.2015 10:00 1,9 C 97 % 1011,9 hPa 0,0 l/m SW 0,00 h 167 W/m 19,6 km/h (3 Bft)
01.03.2015 11:00 2,8 C 96 % 1011,4 hPa 0,0 l/m W-SW 0,08 h 204 W/m 24,4 km/h (4 Bft)
01.03.2015 12:00 4,3 C 93 % 1011,8 hPa 0,0 l/m SW 0,00 h 177 W/m 24,3 km/h (4 Bft)
01.03.2015 13:00 5,3 C 90 % 1011,1 hPa 0,0 l/m SW 0,25 h 242 W/m 21,7 km/h (4 Bft)
01.03.2015 14:00 6,3 C 88 % 1010,4 hPa 0,0 l/m SW 0,25 h 226 W/m 21,8 km/h (4 Bft)
01.03.2015 15:00 7,0 C 88 % 1010,1 hPa 0,0 l/m W-SW 0,17 h 189 W/m 28,8 km/h (5 Bft)
01.03.2015 16:00 7,0 C 89 % 1010,0 hPa 0,0 l/m SW 0,00 h 66 W/m 23,7 km/h (4 Bft)
01.03.2015 17:00 6,3 C 94 % 1010,3 hPa 0,4 l/m SW 0,00 h 22 W/m 19,3 km/h (3 Bft)
01.03.2015 18:00 5,4 C 96 % 1010,3 hPa 0,6 l/m SW 0,00 h 0 W/m 13,8 km/h (3 Bft)
01.03.2015 19:00 5,3 C 97 % 1010,4 hPa 0,2 l/m SW 0,00 h 0 W/m 17,2 km/h (3 Bft)
01.03.2015 20:00 5,1 C 97 % 1010,2 hPa 0,4 l/m SW 0,00 h 0 W/m 11,7 km/h (2 Bft)
01.03.2015 21:00 4,8 C 98 % 1009,4 hPa 0,0 l/m SW 0,00 h 0 W/m 9,8 km/h (2 Bft)
01.03.2015 22:00 5,0 C 98 % 1008,9 hPa 0,8 l/m SW 0,00 h 0 W/m 9,5 km/h (2 Bft)
01.03.2015 23:00 5,6 C 99 % 1008,4 hPa 1,0 l/m W-SW 0,00 h 0 W/m 17,4 km/h (3 Bft)
Min-Datum _ 26.02.15 26.02.15 23.02.15 - - - - 23.02.15
_ Min-Zeit 07:50 15:30 12:45 - - - - 00:00
Minimum _ -5,5 C 46 % 1001,6 hPa - - - - 0,0 km/h (0 Bft)
Max-Datum _ 01.03.15 23.02.15 26.02.15 27.02.15 - 23.02.15 28.02.15 01.03.15
_ Max-Zeit 15:55 13:55 08:25 13:00 - 07:25 13:30 15:20
Maximum _ 7,2 C 100 % 1022,3 hPa 1,6 l/m - 0,08 h 752 W/m 35,4 km/h
W-SW (5 Bft)
Durchschnitt _ 0,9 C 90 % 1013,8 hPa #18,8 l/m SW #17:30 h 155 W/m 7,5 km/h (2 Bft)